KMLS/MLS METAR and TAF weather

Enter ICAO airport designator
Station Type Date Time Source
KMLS METAR 2020/02/20 17:53 UTC NOAA

KMLS 201753Z AUTO 16006KT 10SM CLR M06/M09 A3037 RMK AO2 SLP329 T10561094 11056 21133 58009


Station Type Date Time Source
KMLS Decoded METAR 2020/02/20 17:53 UTC NOAA

MILES CITY WILEY FIELD, MT, United States (KMLS) 46-26N 105-53W 801M
Feb 20, 2020 - 12:53 PM EST / 2020.02.20 1753 UTC
Wind: from the SSE (160 degrees) at 7 MPH (6 KT):0
Visibility: 10 mile(s):0
Sky conditions: clear
Temperature: 21.9 F (-5.6 C)
Windchill: 14 F (-10 C):1
Dew Point: 15.1 F (-9.4 C)
Relative Humidity: 74%
Pressure (altimeter): 30.37 in. Hg (1028 hPa)
Pressure tendency: 0.03 inches (0.9 hPa) lower than three hours ago
ob: KMLS 201753Z AUTO 16006KT 10SM CLR M06/M09 A3037 RMK AO2 SLP329 T10561094 11056 21133 58009
cycle: 18

Station Type Date Time Source
KMLS TAF 2020/02/20 18:22 UTC NOAA

TAF KMLS 201720Z 2018/2118 20008KT P6SM SKC

Example: see airport list